createdAt,value
2023-02-05T00:02:56.670Z,2.40
2023-02-05T00:06:01.595Z,2.30
2023-02-05T00:09:05.655Z,2.50
2023-02-05T00:12:09.665Z,2.50
2023-02-05T00:15:13.370Z,2.80
2023-02-05T00:18:18.725Z,2.30
2023-02-05T00:21:22.607Z,2.60
2023-02-05T00:24:51.892Z,2.20
2023-02-05T00:27:54.457Z,2.30
2023-02-05T00:30:59.161Z,2.50
2023-02-05T00:34:02.043Z,2.00
2023-02-05T00:37:11.675Z,2.70
2023-02-05T00:40:14.184Z,2.60
2023-02-05T00:43:20.479Z,2.20
2023-02-05T00:46:27.317Z,2.10
2023-02-05T00:49:31.453Z,1.90
2023-02-05T00:52:34.124Z,2.80
2023-02-05T00:55:37.918Z,2.10
2023-02-05T00:58:40.503Z,2.30
2023-02-05T01:01:43.493Z,2.00
2023-02-05T01:04:45.468Z,2.00
2023-02-05T01:07:48.794Z,2.10
2023-02-05T01:10:52.725Z,2.20
2023-02-05T01:13:54.737Z,2.40
2023-02-05T01:16:58.326Z,1.80
2023-02-05T01:20:02.250Z,1.80
2023-02-05T01:23:05.346Z,1.90
2023-02-05T01:26:11.100Z,2.00
2023-02-05T01:41:02.245Z,2.10
2023-02-05T01:44:18.875Z,2.10
2023-02-05T01:47:23.774Z,1.80
2023-02-05T01:50:32.825Z,1.80
2023-02-05T01:53:37.634Z,1.70
2023-02-05T01:56:46.484Z,2.10
2023-02-05T01:59:53.235Z,2.00
2023-02-05T02:02:59.295Z,1.80
2023-02-05T02:06:05.132Z,2.90
2023-02-05T02:09:12.503Z,2.30
2023-02-05T02:12:24.873Z,2.30
2023-02-05T02:15:31.894Z,2.20
2023-02-05T02:18:39.573Z,2.00
2023-02-05T02:22:22.270Z,2.10
2023-02-05T02:25:39.417Z,2.00
2023-02-05T02:29:01.104Z,1.90
2023-02-05T02:32:37.576Z,1.60
2023-02-05T02:35:58.456Z,2.20
2023-02-05T02:39:42.836Z,2.10
2023-02-05T02:43:05.302Z,1.70
2023-02-05T02:46:22.432Z,2.10
2023-02-05T02:49:48.103Z,2.90
2023-02-05T02:52:55.499Z,2.90
2023-02-05T02:56:01.124Z,2.30
2023-02-05T02:59:15.596Z,2.60
2023-02-05T03:02:20.461Z,2.70
2023-02-05T03:05:29.958Z,2.50
2023-02-05T03:08:54.856Z,2.40
2023-02-05T03:12:00.485Z,2.40
2023-02-05T03:15:07.393Z,2.40
2023-02-05T03:18:14.573Z,2.40
2023-02-05T03:24:29.286Z,2.60
2023-02-05T03:27:34.055Z,2.30
2023-02-05T03:30:50.649Z,2.40
2023-02-05T03:34:12.283Z,2.30
2023-02-05T03:37:35.206Z,2.50
2023-02-05T03:41:05.353Z,2.00
2023-02-05T03:44:23.148Z,2.40
2023-02-05T03:50:32.254Z,2.50
2023-02-05T03:53:43.138Z,2.80
2023-02-05T03:57:05.220Z,3.00
2023-02-05T04:00:12.880Z,2.50
2023-02-05T04:03:20.136Z,2.60
2023-02-05T04:06:23.863Z,2.40
2023-02-05T04:09:29.620Z,2.50
2023-02-05T04:12:33.523Z,2.50
2023-02-05T04:15:39.191Z,2.30
2023-02-05T04:18:47.780Z,3.00
2023-02-05T04:21:51.784Z,2.90
2023-02-05T04:24:57.901Z,2.70
2023-02-05T04:28:03.410Z,2.20
2023-02-05T04:31:12.826Z,3.40
2023-02-05T04:34:18.803Z,2.70
2023-02-05T04:37:25.154Z,2.60
2023-02-05T04:40:30.094Z,2.40
2023-02-05T04:43:35.487Z,2.80
2023-02-05T04:46:39.812Z,3.10
2023-02-05T04:49:44.473Z,3.10
2023-02-05T04:52:47.890Z,3.40
2023-02-05T04:55:52.385Z,3.60
2023-02-05T04:59:00.114Z,4.80
2023-02-05T05:02:04.792Z,3.20
2023-02-05T05:05:09.238Z,4.00
2023-02-05T05:08:14.513Z,3.20
2023-02-05T05:11:19.740Z,3.30
2023-02-05T05:14:24.901Z,3.90
2023-02-05T05:17:31.483Z,3.80
2023-02-05T05:20:34.738Z,3.30
2023-02-05T05:23:39.754Z,3.60
2023-02-05T05:26:45.716Z,3.80
2023-02-05T05:29:53.745Z,4.20
2023-02-05T05:32:59.343Z,3.80
2023-02-05T05:36:44.050Z,3.70
2023-02-05T05:40:06.794Z,3.60
2023-02-05T05:43:33.647Z,3.90
2023-02-05T05:46:37.280Z,4.40
2023-02-05T05:49:39.068Z,4.40
2023-02-05T05:52:41.352Z,3.70
2023-02-05T05:55:43.981Z,4.60
2023-02-05T05:58:48.573Z,4.10
2023-02-05T06:01:51.599Z,4.00
2023-02-05T06:04:55.215Z,3.60
2023-02-05T06:07:58.400Z,4.10
2023-02-05T06:11:04.222Z,4.10
2023-02-05T06:14:08.516Z,3.60
2023-02-05T06:17:11.803Z,3.60
2023-02-05T06:20:15.910Z,4.20
2023-02-05T06:23:20.285Z,4.30
2023-02-05T06:26:23.867Z,4.30
2023-02-05T06:29:26.089Z,3.80
2023-02-05T06:32:30.692Z,3.70
2023-02-05T06:35:35.100Z,4.40
2023-02-05T06:38:40.315Z,5.20
2023-02-05T06:41:46.948Z,4.50
2023-02-05T06:44:51.315Z,4.20
2023-02-05T06:47:55.699Z,4.80
2023-02-05T06:51:00.496Z,4.90
2023-02-05T06:54:05.930Z,5.00
2023-02-05T06:57:13.776Z,4.60
2023-02-05T07:00:23.008Z,4.40
2023-02-05T07:03:35.721Z,5.50
2023-02-05T07:06:40.887Z,5.70
2023-02-05T07:09:45.274Z,5.30
2023-02-05T07:12:53.309Z,4.70
2023-02-05T07:15:56.963Z,5.10
2023-02-05T07:19:04.085Z,4.90
2023-02-05T07:22:07.640Z,5.50
2023-02-05T07:25:10.276Z,5.10
2023-02-05T07:28:15.091Z,4.50
2023-02-05T07:31:22.294Z,5.40
2023-02-05T07:34:30.277Z,5.10
2023-02-05T07:37:38.612Z,5.80
2023-02-05T07:40:42.598Z,5.70
2023-02-05T07:43:48.581Z,5.70
2023-02-05T07:46:50.796Z,6.00
2023-02-05T07:49:52.794Z,5.10
2023-02-05T07:53:00.913Z,5.90
2023-02-05T07:56:04.654Z,5.80
2023-02-05T07:59:11.730Z,4.80
2023-02-05T08:02:24.326Z,5.80
2023-02-05T08:05:39.624Z,5.80
2023-02-05T08:08:46.071Z,6.20
2023-02-05T08:11:49.036Z,5.00
2023-02-05T08:14:57.456Z,5.90
2023-02-05T08:18:09.282Z,4.80
2023-02-05T08:21:13.271Z,5.60
2023-02-05T08:24:18.104Z,5.90
2023-02-05T08:27:30.131Z,6.20
2023-02-05T08:30:42.793Z,5.70
2023-02-05T08:33:54.532Z,5.30
2023-02-05T08:37:02.319Z,5.50
2023-02-05T08:40:09.917Z,5.60
2023-02-05T08:43:20.776Z,5.50
2023-02-05T08:46:48.695Z,6.20
2023-02-05T08:49:55.832Z,5.80
2023-02-05T08:53:00.464Z,5.30
2023-02-05T08:56:06.115Z,5.90
2023-02-05T08:59:12.496Z,5.90
2023-02-05T09:02:15.997Z,5.10
2023-02-05T09:05:20.386Z,5.10
2023-02-05T09:08:29.814Z,5.40
2023-02-05T09:11:36.919Z,5.60
2023-02-05T09:14:46.112Z,5.60
2023-02-05T09:17:50.109Z,5.50
2023-02-05T09:20:58.471Z,5.40
2023-02-05T09:24:01.717Z,5.20
2023-02-05T09:27:18.971Z,6.50
2023-02-05T09:30:24.570Z,5.60
2023-02-05T09:33:31.296Z,5.30
2023-02-05T09:36:40.987Z,5.50
2023-02-05T09:43:36.260Z,4.40
2023-02-05T09:47:20.227Z,5.00
2023-02-05T09:50:30.234Z,4.40
2023-02-05T09:53:40.430Z,5.10
2023-02-05T09:56:46.414Z,4.60
2023-02-05T09:59:49.583Z,5.20
2023-02-05T10:03:26.585Z,4.60
2023-02-05T10:06:37.418Z,4.80
2023-02-05T10:10:03.128Z,4.60
2023-02-05T10:13:28.948Z,6.00
2023-02-05T10:17:03.203Z,4.60
2023-02-05T10:20:29.304Z,5.10
2023-02-05T10:23:45.086Z,5.00
2023-02-05T10:27:12.050Z,4.40
2023-02-05T10:30:28.042Z,4.50
2023-02-05T10:33:39.721Z,6.20
2023-02-05T10:36:53.349Z,4.90
2023-02-05T10:39:57.561Z,5.40
2023-02-05T10:43:05.833Z,5.20
2023-02-05T10:46:15.897Z,4.80
2023-02-05T10:49:59.930Z,4.10
2023-02-05T10:53:09.762Z,4.60
2023-02-05T10:56:19.156Z,5.10
2023-02-05T10:59:27.992Z,5.80
2023-02-05T11:02:38.100Z,6.70
2023-02-05T11:05:41.079Z,5.30
2023-02-05T11:08:44.221Z,4.60
2023-02-05T11:11:52.509Z,6.30
2023-02-05T11:15:02.073Z,8.80
2023-02-05T11:18:23.178Z,7.50
2023-02-05T11:22:00.725Z,5.80
2023-02-05T11:25:25.672Z,5.50
2023-02-05T11:28:35.572Z,5.80
2023-02-05T11:31:39.833Z,5.50
2023-02-05T11:34:42.114Z,5.70
2023-02-05T11:37:46.287Z,6.20
2023-02-05T11:40:53.274Z,5.90
2023-02-05T11:43:57.747Z,5.60
2023-02-05T11:47:01.575Z,5.70
2023-02-05T11:50:05.673Z,6.00
2023-02-05T11:53:19.187Z,5.70
2023-02-05T11:56:25.610Z,6.30
2023-02-05T11:59:28.455Z,5.60
2023-02-05T12:02:34.616Z,5.10
2023-02-05T12:05:45.902Z,6.00
2023-02-05T12:08:54.316Z,5.70
2023-02-05T12:12:15.182Z,5.20
2023-02-05T12:15:30.569Z,5.00
2023-02-05T12:23:37.031Z,5.20
2023-02-05T12:26:47.196Z,6.80
2023-02-05T12:30:38.635Z,6.10
2023-02-05T12:34:12.408Z,5.50
2023-02-05T12:37:31.104Z,7.50
2023-02-05T12:41:13.522Z,7.60
2023-02-05T12:44:46.924Z,5.90
2023-02-05T12:48:27.695Z,5.60
2023-02-05T12:51:39.516Z,5.40
2023-02-05T12:55:14.637Z,5.80
2023-02-05T12:58:33.921Z,5.60
2023-02-05T13:02:49.097Z,6.40
2023-02-05T13:06:17.504Z,5.80
2023-02-05T13:09:27.477Z,5.80
2023-02-05T13:12:39.558Z,6.80
2023-02-05T13:15:56.823Z,6.20
2023-02-05T13:19:34.584Z,6.10
2023-02-05T13:23:03.384Z,7.40
2023-02-05T13:26:25.472Z,7.30
2023-02-05T13:29:43.856Z,7.40
2023-02-05T13:32:53.501Z,7.80
2023-02-05T13:36:32.644Z,6.30
2023-02-05T13:40:23.763Z,6.40
2023-02-05T13:43:45.277Z,5.50
2023-02-05T13:47:26.121Z,6.90
2023-02-05T13:51:10.949Z,6.10
2023-02-05T13:55:07.728Z,6.70
2023-02-05T13:58:27.688Z,5.80
2023-02-05T14:01:44.061Z,6.00
2023-02-05T14:04:54.056Z,6.70
2023-02-05T14:08:04.496Z,6.20
2023-02-05T14:11:23.087Z,7.20
2023-02-05T14:14:34.631Z,7.40
2023-02-05T14:17:43.648Z,5.90
2023-02-05T14:20:48.843Z,6.60
2023-02-05T14:24:00.711Z,5.60
2023-02-05T14:27:47.210Z,6.20
2023-02-05T14:35:40.644Z,6.10
2023-02-05T14:38:53.346Z,6.80
2023-02-05T14:42:01.706Z,6.10
2023-02-05T14:45:14.823Z,6.10
2023-02-05T14:48:30.891Z,5.80
2023-02-05T14:51:50.490Z,6.60
2023-02-05T14:55:15.222Z,6.90
2023-02-05T14:58:24.034Z,6.60
2023-02-05T15:01:54.348Z,7.30
2023-02-05T15:05:02.987Z,6.40
2023-02-05T15:08:26.565Z,6.70
2023-02-05T15:11:57.489Z,6.80
2023-02-05T15:15:39.000Z,5.50
2023-02-05T15:18:48.017Z,6.60
2023-02-05T15:21:53.281Z,7.50
2023-02-05T15:24:58.359Z,6.40
2023-02-05T15:28:21.752Z,6.90
2023-02-05T15:31:45.605Z,6.60
2023-02-05T15:34:56.916Z,7.70
2023-02-05T15:38:16.358Z,6.80
2023-02-05T15:41:24.565Z,8.20
2023-02-05T15:44:33.617Z,6.70
2023-02-05T15:47:43.405Z,8.00
2023-02-05T15:51:31.228Z,7.20
2023-02-05T15:54:37.074Z,7.50
2023-02-05T15:57:42.359Z,8.00
2023-02-05T16:00:52.101Z,7.50
2023-02-05T16:03:57.900Z,7.50
2023-02-05T16:07:17.111Z,8.60
2023-02-05T16:10:33.305Z,7.80
2023-02-05T16:13:42.907Z,8.60
2023-02-05T16:17:18.483Z,8.10
2023-02-05T16:21:03.058Z,10.90
2023-02-05T16:24:22.312Z,9.80
2023-02-05T16:27:58.576Z,8.60
2023-02-05T16:31:04.371Z,7.60
2023-02-05T16:34:22.448Z,9.00
2023-02-05T16:37:30.697Z,7.00
2023-02-05T16:40:45.980Z,8.00
2023-02-05T16:43:53.471Z,7.40
2023-02-05T16:47:24.104Z,7.50
2023-02-05T16:50:40.825Z,6.90
2023-02-05T16:53:49.783Z,7.20
2023-02-05T16:57:33.202Z,6.90
2023-02-05T17:00:43.268Z,6.40
2023-02-05T17:04:00.796Z,7.50
2023-02-05T17:07:17.064Z,5.60
2023-02-05T17:10:24.969Z,7.20
2023-02-05T17:13:49.163Z,5.80
2023-02-05T17:17:22.030Z,6.30
2023-02-05T17:20:50.394Z,6.90
2023-02-05T17:24:09.615Z,7.90
2023-02-05T17:27:40.846Z,6.80
2023-02-05T17:30:54.596Z,6.70
2023-02-05T17:34:06.818Z,5.90
2023-02-05T17:37:14.862Z,6.20
2023-02-05T17:40:24.979Z,6.10
2023-02-05T17:43:30.942Z,5.90
2023-02-05T19:49:03.768Z,6.90
2023-02-05T19:52:28.958Z,4.80
2023-02-05T19:56:12.906Z,4.80
2023-02-05T19:59:53.983Z,5.40
2023-02-05T20:06:46.643Z,5.10
2023-02-05T20:09:53.956Z,5.20
2023-02-05T20:13:04.972Z,5.50
2023-02-05T20:16:21.831Z,6.50
2023-02-05T20:19:26.162Z,5.80
2023-02-05T20:22:30.020Z,5.50
2023-02-05T20:25:41.600Z,5.30
2023-02-05T20:29:11.202Z,5.50
2023-02-05T20:32:21.683Z,5.30
2023-02-05T20:35:28.916Z,5.30
2023-02-05T20:38:47.717Z,5.30
2023-02-05T20:42:23.614Z,4.50
2023-02-05T20:45:32.960Z,5.50
2023-02-05T20:48:42.528Z,5.70
2023-02-05T20:51:52.611Z,5.10
2023-02-05T20:55:02.272Z,4.80
2023-02-05T20:58:11.513Z,5.60
2023-02-05T21:01:23.489Z,5.30
2023-02-05T21:04:35.850Z,5.40
2023-02-05T21:07:48.658Z,5.10
2023-02-05T21:10:53.226Z,4.70
2023-02-05T21:14:18.227Z,5.70
2023-02-05T21:17:31.796Z,5.20
2023-02-05T21:20:42.277Z,5.90
2023-02-05T21:23:47.631Z,6.20
2023-02-05T21:26:51.989Z,4.50
2023-02-05T21:29:56.408Z,6.00
2023-02-05T21:33:04.078Z,4.90
2023-02-05T21:36:21.916Z,5.70
2023-02-05T21:39:50.881Z,5.80
2023-02-05T21:42:57.009Z,6.30
2023-02-05T21:46:06.508Z,6.20
2023-02-05T21:49:12.708Z,5.60
2023-02-05T21:52:17.725Z,5.80
2023-02-05T21:55:27.606Z,6.30
2023-02-05T21:58:38.621Z,7.40
2023-02-05T22:01:46.893Z,6.50
2023-02-05T22:04:58.088Z,6.50
2023-02-05T22:08:06.548Z,5.30
2023-02-05T22:11:11.340Z,6.30
2023-02-05T22:14:17.003Z,6.10
2023-02-05T22:17:22.431Z,6.40
2023-02-05T22:20:30.143Z,6.40
2023-02-05T22:23:33.971Z,6.00
2023-02-05T22:26:39.527Z,6.00
2023-02-05T22:29:42.193Z,6.30
2023-02-05T22:32:52.281Z,6.60
2023-02-05T22:35:55.672Z,6.60
2023-02-05T22:38:59.881Z,7.00
2023-02-05T22:42:13.191Z,7.70
2023-02-05T22:45:21.106Z,5.80
2023-02-05T22:48:30.656Z,6.80
2023-02-05T22:51:39.098Z,6.20
2023-02-05T22:54:43.208Z,6.80
2023-02-05T22:57:47.202Z,6.90
2023-02-05T23:00:51.160Z,7.20
2023-02-05T23:03:54.515Z,6.30
2023-02-05T23:06:58.599Z,7.70
2023-02-05T23:10:04.039Z,7.50
2023-02-05T23:13:07.366Z,9.50
2023-02-05T23:16:22.512Z,8.40
2023-02-05T23:19:28.612Z,6.90
2023-02-05T23:22:32.372Z,6.90
2023-02-05T23:25:37.822Z,7.00
2023-02-05T23:28:42.153Z,7.00
2023-02-05T23:31:49.135Z,6.90
2023-02-05T23:34:53.733Z,7.80
2023-02-05T23:38:03.265Z,6.80
2023-02-05T23:41:06.993Z,7.10
2023-02-05T23:44:21.232Z,6.70
2023-02-05T23:47:29.890Z,7.00
2023-02-05T23:50:33.560Z,6.50
2023-02-05T23:53:39.552Z,6.10
2023-02-05T23:56:49.267Z,7.40
2023-02-05T23:59:57.626Z,7.20
